This is the latest recevied weather packets stored in our database for station/object N5ZP. If no packets are shown the sender has not sent any weather packets the latest 10 day(s).
| Time | Temp. | Humidity | Pressure | Rain* | Wind** | Luminosity | Snow |
|---|---|---|---|---|---|---|---|
| 1777493209 | 18.33° C | 73% | 1011.5 hPa | 0 mm | - | 280 W/m² | - |
| 1777492906 | 18.33° C | 69% | 1011.4 hPa | 0 mm | - | 268 W/m² | - |
| 1777492603 | 18.33° C | 71% | 1011.3 hPa | 0 mm | - | 298 W/m² | - |
| 1777492298 | 18.33° C | 70% | 1011.5 hPa | 0 mm | - | 369 W/m² | - |
| 1777491995 | 18.89° C | 69% | 1011.8 hPa | 0 mm | - | 420 W/m² | - |
| 1777491692 | 18.33° C | 71% | 1011.8 hPa | 0 mm | - | 533 W/m² | - |
| 1777491390 | 17.78° C | 72% | 1012.1 hPa | 0 mm | - | 289 W/m² | - |
| 1777491086 | 17.78° C | 72% | 1012.1 hPa | 0 mm | - | 298 W/m² | - |
| 1777490781 | 17.78° C | 74% | 1012.1 hPa | 0 mm | - | 380 W/m² | - |
| 1777490479 | 17.22° C | 73% | 1012.5 hPa | 0 mm | - | 333 W/m² | - |
| 1777490175 | 17.22° C | 72% | 1012.6 hPa | 0 mm | - | 249 W/m² | - |
| 1777489872 | 17.22° C | 73% | 1012.4 hPa | 0 mm | - | 238 W/m² | - |
| 1777489569 | 17.22° C | 74% | 1012.5 hPa | 0 mm | - | 208 W/m² | - |
| 1777489266 | 17.22° C | 75% | 1012.3 hPa | 0 mm | - | 282 W/m² | - |
| 1777488963 | 16.67° C | 76% | 1012.6 hPa | 0 mm | - | 220 W/m² | - |
| 1777488660 | 16.67° C | 75% | 1012.8 hPa | 0 mm | - | 132 W/m² | - |
| 1777488358 | 16.67° C | 75% | 1012.8 hPa | 0 mm | - | 118 W/m² | - |
| 1777488056 | 16.67° C | 75% | 1012.7 hPa | 0 mm | - | 171 W/m² | - |
| 1777487753 | 16.67° C | 76% | 1012.8 hPa | 0 mm | - | 139 W/m² | - |
| 1777487451 | 16.67° C | 77% | 1012.6 hPa | 0 mm | - | 218 W/m² | - |
| 1777487148 | 16.67° C | 77% | 1012.8 hPa | 0 mm | - | 155 W/m² | - |
| 1777486844 | 16.67° C | 77% | 1012.8 hPa | 0 mm | - | 193 W/m² | - |
| 1777486541 | 16.11° C | 77% | 1013.3 hPa | 0 mm | - | 140 W/m² | - |
| 1777486239 | 16.11° C | 77% | 1013.3 hPa | 0 mm | - | 159 W/m² | - |
| 1777485936 | 16.11° C | 77% | 1013.4 hPa | 0 mm | - | 89 W/m² | - |
* Rain latest hour (hover to see other rain measurements)
** Current wind speed in m/s (hover to see current wind gust speed)